Colon, North Carolina
Current Conditions -  °F | °C
As of 11:35 AM on Thursday 23 Oct 2014 (Local Time) from KTTA Reporting Station
Clear Clear  
Wind Chill: 16°   Ceiling: Unl
Heat Index: 16°   Visibility: 10mi
Dew Point:   Wind: 9mph
Humidity: 51%   Direction: 310°NW
Pressure: 30.03"   Gusts: NA
Location:  35.493°N, 79.1765°W
Report Text: KTTA 231535Z AUTO 31008KT 10SM CLR 16/06 A3003 RMK AO2 T01590057
Loading
Personal Weather Stations






























Interactive Weather Map
Tropical Storm Tracking
New forecast layout! Learn more

10-Day Weather Forecast

Advertisements
Track Severe Weather on mobile